Time;durP1;ratioP1;P1;durP2;ratioP2;P2;SDS_P1;SDS_P2;PMS_P1;PMS_P2;Temp;Humidity;BMP_temperature;BMP_pressure;BME280_temperature;BME280_humidity;BME280_pressure;Samples;Min_cycle;Max_cycle;Signal;HPM_P1;HPM_P2
2023/06/07 00:01:33;;;;;;;14.80;12.43;;;19.70;96.80;;;;;;5112082;28;20196;-63
2023/06/07 00:04:02;;;;;;;13.70;11.67;;;19.60;96.80;;;;;;5113027;28;20202;-64
2023/06/07 00:06:32;;;;;;;13.90;12.33;;;19.60;96.90;;;;;;5114249;28;20213;-63
2023/06/07 00:08:59;;;;;;;14.67;11.80;;;19.60;96.90;;;;;;5113246;28;20333;-64
2023/06/07 00:11:26;;;;;;;13.53;10.83;;;19.60;96.90;;;;;;5115951;28;20196;-63
2023/06/07 00:13:53;;;;;;;14.80;11.53;;;19.60;96.90;;;;;;5116514;27;20514;-63
2023/06/07 00:16:20;;;;;;;13.07;11.60;;;19.60;96.90;;;;;;5115695;28;20593;-63
2023/06/07 00:18:48;;;;;;;14.67;13.10;;;19.60;97.00;;;;;;5115457;28;20204;-64
2023/06/07 00:21:15;;;;;;;14.63;12.23;;;19.50;97.00;;;;;;5117086;27;20195;-63
2023/06/07 00:23:42;;;;;;;12.83;9.60;;;19.50;96.90;;;;;;5115086;27;20195;-63
2023/06/07 00:26:09;;;;;;;12.90;11.47;;;19.50;96.80;;;;;;5115504;27;21134;-63
2023/06/07 00:28:37;;;;;;;13.13;11.73;;;19.50;96.60;;;;;;5116723;27;20550;-64
2023/06/07 00:31:05;;;;;;;14.90;12.27;;;19.50;96.50;;;;;;5114732;27;20204;-63
2023/06/07 00:33:33;;;;;;;16.87;12.93;;;19.40;96.50;;;;;;5116608;28;20200;-64
2023/06/07 00:36:00;;;;;;;18.30;13.07;;;19.40;96.50;;;;;;5116525;27;20215;-64
2023/06/07 00:38:27;;;;;;;15.70;13.27;;;19.40;96.60;;;;;;5115663;27;20233;-64
2023/06/07 00:40:54;;;;;;;16.30;13.63;;;19.30;96.70;;;;;;5112951;28;20619;-64
2023/06/07 00:43:21;;;;;;;17.30;13.53;;;19.40;96.70;;;;;;5113924;27;20206;-63
2023/06/07 00:45:48;;;;;;;20.27;11.43;;;19.30;96.70;;;;;;5116184;28;20235;-64
2023/06/07 00:48:15;;;;;;;15.27;12.00;;;19.30;96.60;;;;;;5116546;27;20296;-63
2023/06/07 00:50:43;;;;;;;16.70;13.10;;;19.30;96.60;;;;;;5132047;27;20585;-63
2023/06/07 00:53:12;;;;;;;15.63;13.87;;;19.30;96.60;;;;;;5114350;27;20650;-64
2023/06/07 00:55:39;;;;;;;20.73;15.33;;;19.20;96.60;;;;;;5115742;27;20286;-63
2023/06/07 00:58:07;;;;;;;20.90;16.00;;;19.20;96.70;;;;;;5113402;28;20208;-63
2023/06/07 01:00:37;;;;;;;23.20;15.33;;;19.20;96.70;;;;;;5115712;27;20621;-64
2023/06/07 01:03:05;;;;;;;18.07;14.97;;;19.20;96.80;;;;;;5115067;27;20200;-64
2023/06/07 01:05:33;;;;;;;22.80;15.30;;;19.10;96.80;;;;;;5115566;27;20240;-64
2023/06/07 01:08:00;;;;;;;18.87;15.10;;;19.20;96.90;;;;;;5114911;27;20275;-63
2023/06/07 01:10:29;;;;;;;15.73;13.23;;;19.10;96.80;;;;;;5113665;27;20564;-63
2023/06/07 01:12:56;;;;;;;19.53;14.30;;;19.20;96.80;;;;;;5114195;28;20234;-63
2023/06/07 01:15:25;;;;;;;15.43;11.10;;;19.10;96.90;;;;;;5105851;28;20195;-63
2023/06/07 01:17:53;;;;;;;19.27;12.97;;;19.10;96.90;;;;;;5116409;27;20260;-63
2023/06/07 01:20:25;;;;;;;17.73;12.37;;;19.10;96.70;;;;;;5115649;27;20195;-63
2023/06/07 01:22:59;;;;;;;15.07;12.27;;;19.10;96.60;;;;;;5114354;27;20271;-63
2023/06/07 01:25:26;;;;;;;16.77;12.83;;;19.00;96.70;;;;;;5112952;27;21614;-63
2023/06/07 01:27:56;;;;;;;21.30;12.80;;;19.00;96.70;;;;;;5114803;27;20227;-63
2023/06/07 01:30:24;;;;;;;18.93;14.93;;;19.00;96.70;;;;;;5111474;27;20543;-64
2023/06/07 01:32:52;;;;;;;17.17;11.83;;;19.00;96.70;;;;;;5116088;27;20686;-63
2023/06/07 01:35:21;;;;;;;18.23;14.10;;;19.00;96.80;;;;;;5114919;27;20199;-64
2023/06/07 01:37:48;;;;;;;20.73;13.70;;;19.00;96.80;;;;;;5112862;27;20234;-63
2023/06/07 01:40:16;;;;;;;17.13;14.30;;;19.00;96.70;;;;;;5112514;28;20559;-63
2023/06/07 01:42:45;;;;;;;21.40;15.40;;;19.00;96.80;;;;;;5112829;27;20288;-64
2023/06/07 01:45:13;;;;;;;17.90;13.77;;;19.00;96.80;;;;;;5108130;27;20254;-63
2023/06/07 01:47:40;;;;;;;18.40;13.23;;;19.00;96.90;;;;;;5114575;27;20279;-63
2023/06/07 01:50:09;;;;;;;22.63;15.17;;;19.00;97.00;;;;;;5115139;28;20682;-63
2023/06/07 01:52:37;;;;;;;23.87;15.40;;;19.00;97.00;;;;;;5102244;28;20571;-63
2023/06/07 01:55:06;;;;;;;19.87;14.87;;;19.00;97.00;;;;;;5116032;27;20200;-64
2023/06/07 01:57:59;;;;;;;19.30;14.90;;;19.00;97.00;;;;;;5112451;27;20204;-64
2023/06/07 02:00:33;;;;;;;22.47;16.43;;;19.00;97.10;;;;;;5111707;28;20215;-63
2023/06/07 02:03:16;;;;;;;62.73;15.10;;;19.00;97.20;;;;;;5115082;27;20268;-63
2023/06/07 02:05:54;;;;;;;15.23;13.33;;;19.00;97.20;;;;;;5113593;27;20214;-63
2023/06/07 02:08:42;;;;;;;18.97;15.33;;;19.00;97.10;;;;;;5115887;27;20202;-63
2023/06/07 02:11:10;;;;;;;17.70;13.77;;;19.00;97.20;;;;;;5115482;27;20497;-63
2023/06/07 02:13:42;;;;;;;20.27;16.53;;;19.00;97.20;;;;;;5112158;27;20191;-63
2023/06/07 02:16:10;;;;;;;21.73;17.43;;;18.90;97.20;;;;;;5114145;27;20198;-63
2023/06/07 02:18:42;;;;;;;21.50;17.17;;;18.90;97.20;;;;;;5114357;27;20523;-63
2023/06/07 02:21:10;;;;;;;20.20;16.00;;;18.90;97.20;;;;;;5113880;27;20284;-63
2023/06/07 02:23:38;;;;;;;20.03;17.37;;;18.90;97.40;;;;;;5113056;27;20199;-63
2023/06/07 02:26:05;;;;;;;24.57;18.27;;;18.90;97.40;;;;;;5115465;28;20212;-64
2023/06/07 02:28:32;;;;;;;26.77;17.90;;;18.90;97.50;;;;;;5111542;27;20610;-63
2023/06/07 02:31:00;;;;;;;25.57;19.53;;;18.90;97.60;;;;;;5113900;28;20203;-63
2023/06/07 02:33:27;;;;;;;30.97;19.73;;;19.00;97.70;;;;;;5115640;27;20590;-63
2023/06/07 02:35:54;;;;;;;30.90;21.33;;;18.90;97.70;;;;;;5113250;27;20563;-63
2023/06/07 02:38:21;;;;;;;35.20;21.83;;;19.00;97.80;;;;;;5106590;28;20250;-64
2023/06/07 02:40:48;;;;;;;24.93;19.07;;;19.00;97.80;;;;;;5105609;28;20202;-63
2023/06/07 02:43:15;;;;;;;31.37;20.73;;;19.10;97.90;;;;;;5115423;27;20218;-64
2023/06/07 02:45:44;;;;;;;32.93;23.40;;;19.10;98.00;;;;;;5114088;27;20210;-63
2023/06/07 02:48:15;;;;;;;29.93;22.23;;;19.10;98.00;;;;;;5114692;27;20239;-63
2023/06/07 02:50:42;;;;;;;30.03;21.27;;;19.20;98.10;;;;;;5113993;27;20223;-63
2023/06/07 02:53:09;;;;;;;29.00;19.83;;;19.20;98.10;;;;;;5113093;27;20210;-63
2023/06/07 02:55:36;;;;;;;25.37;20.13;;;19.30;98.20;;;;;;5112394;27;20204;-63
2023/06/07 02:58:05;;;;;;;27.90;20.03;;;19.30;98.20;;;;;;5112318;27;20264;-63
2023/06/07 03:00:35;;;;;;;29.90;21.50;;;19.30;98.20;;;;;;5112007;28;20230;-63
2023/06/07 03:03:08;;;;;;;36.70;21.27;;;19.30;98.20;;;;;;5111592;28;20202;-63
2023/06/07 03:05:41;;;;;;;33.37;23.70;;;19.40;98.30;;;;;;5112203;27;20251;-63
2023/06/07 03:08:11;;;;;;;29.87;23.17;;;19.40;98.30;;;;;;5121516;27;20208;-64
2023/06/07 03:10:40;;;;;;;30.53;22.70;;;19.50;98.30;;;;;;5128392;27;20550;-63
2023/06/07 03:13:10;;;;;;;35.87;24.40;;;19.50;98.30;;;;;;5110589;27;20289;-63
2023/06/07 03:15:38;;;;;;;36.27;24.53;;;19.50;98.30;;;;;;5111774;28;20257;-63
2023/06/07 03:18:05;;;;;;;35.50;23.70;;;19.50;98.30;;;;;;5115038;27;20203;-64
2023/06/07 03:20:36;;;;;;;32.97;22.50;;;19.50;98.30;;;;;;5112632;28;20204;-63
2023/06/07 03:23:10;;;;;;;28.70;20.27;;;19.50;98.30;;;;;;5113259;28;20203;-64
2023/06/07 03:25:41;;;;;;;27.83;20.27;;;19.50;98.30;;;;;;5130464;27;20199;-64
2023/06/07 03:28:08;;;;;;;32.33;20.77;;;19.40;98.20;;;;;;5111971;28;20622;-64
2023/06/07 03:30:41;;;;;;;30.87;21.40;;;19.40;98.10;;;;;;5110961;28;20668;-64
2023/06/07 03:33:08;;;;;;;30.07;19.93;;;19.40;98.10;;;;;;5112695;28;20294;-64
2023/06/07 03:35:39;;;;;;;28.00;19.33;;;19.40;98.10;;;;;;5111171;28;20200;-63
2023/06/07 03:38:09;;;;;;;29.60;19.33;;;19.40;98.10;;;;;;5111145;27;20211;-64
2023/06/07 03:40:36;;;;;;;27.93;21.00;;;19.30;98.00;;;;;;5116764;27;20211;-64
2023/06/07 03:43:05;;;;;;;30.17;17.57;;;19.30;98.00;;;;;;5117258;27;20239;-64
2023/06/07 03:45:32;;;;;;;33.00;21.63;;;19.30;97.90;;;;;;5116774;27;20195;-63
2023/06/07 03:48:07;;;;;;;34.97;21.23;;;19.30;97.80;;;;;;5118948;27;20282;-63
2023/06/07 03:50:35;;;;;;;28.13;21.27;;;19.20;97.80;;;;;;5112183;27;20199;-64
2023/06/07 03:53:02;;;;;;;34.70;21.80;;;19.30;97.90;;;;;;5117556;27;20225;-63
2023/06/07 03:55:31;;;;;;;31.67;20.43;;;19.20;97.80;;;;;;5116602;27;20222;-63
2023/06/07 03:57:58;;;;;;;28.30;20.43;;;19.20;97.80;;;;;;5118712;27;20207;-64
2023/06/07 04:00:27;;;;;;;26.27;19.97;;;19.20;97.90;;;;;;5115978;27;20203;-63
2023/06/07 04:02:56;;;;;;;24.97;19.27;;;19.20;97.90;;;;;;5116818;27;20689;-63
2023/06/07 04:05:26;;;;;;;25.57;20.73;;;19.20;98.00;;;;;;5116229;27;20208;-63
2023/06/07 04:07:59;;;;;;;24.00;17.80;;;19.20;98.00;;;;;;5117739;27;20215;-63
2023/06/07 04:10:27;;;;;;;26.10;17.77;;;19.20;98.00;;;;;;5115346;27;20210;-63
2023/06/07 04:12:54;;;;;;;28.30;18.47;;;19.20;98.00;;;;;;5116048;27;20673;-64
2023/06/07 04:15:22;;;;;;;25.23;18.17;;;19.20;98.00;;;;;;5115469;28;20213;-63
2023/06/07 04:17:49;;;;;;;31.20;19.40;;;19.20;98.00;;;;;;5116624;27;20221;-63
2023/06/07 04:20:17;;;;;;;25.33;17.73;;;19.30;98.00;;;;;;5117895;27;20590;-64
2023/06/07 04:22:46;;;;;;;24.60;15.10;;;19.30;98.00;;;;;;5117528;27;20222;-63
2023/06/07 04:25:16;;;;;;;22.17;17.20;;;19.30;97.90;;;;;;5117233;27;20212;-63
2023/06/07 04:27:46;;;;;;;34.30;20.23;;;19.40;97.70;;;;;;5113297;27;20564;-63
2023/06/07 04:30:15;;;;;;;29.87;19.80;;;19.40;97.50;;;;;;5115004;27;20698;-63
2023/06/07 04:32:43;;;;;;;29.93;22.63;;;19.40;97.50;;;;;;5112870;27;20196;-63
2023/06/07 04:35:14;;;;;;;34.27;22.03;;;19.40;97.60;;;;;;5115273;28;20618;-64
2023/06/07 04:37:45;;;;;;;28.17;18.70;;;19.50;97.70;;;;;;5117210;27;20211;-63
2023/06/07 04:40:15;;;;;;;31.47;20.33;;;19.60;97.80;;;;;;5117158;27;20216;-63
2023/06/07 04:42:52;;;;;;;30.77;20.23;;;19.60;97.80;;;;;;5116671;27;20208;-63
2023/06/07 04:45:28;;;;;;;38.70;23.03;;;19.70;97.90;;;;;;5116175;27;20197;-63
2023/06/07 04:47:58;;;;;;;35.90;26.13;;;19.80;97.80;;;;;;5116443;27;20261;-63
2023/06/07 04:50:26;;;;;;;36.87;26.10;;;19.90;97.80;;;;;;5117242;27;20660;-64
2023/06/07 04:53:00;;;;;;;40.30;27.13;;;19.90;97.80;;;;;;5115724;27;20646;-64
2023/06/07 04:55:34;;;;;;;43.03;28.97;;;20.00;97.90;;;;;;5116573;27;20208;-63
2023/06/07 04:58:04;;;;;;;48.87;30.60;;;20.10;98.00;;;;;;5115856;27;20219;-64
2023/06/07 05:00:33;;;;;;;45.93;30.07;;;20.20;98.00;;;;;;5116285;27;20199;-64
2023/06/07 05:03:06;;;;;;;46.07;30.83;;;20.30;98.00;;;;;;5117137;27;20569;-63
2023/06/07 05:05:35;;;;;;;47.73;32.07;;;20.40;98.00;;;;;;5105509;28;20581;-63
2023/06/07 05:08:03;;;;;;;46.77;30.47;;;20.40;98.00;;;;;;5115461;27;20217;-63
2023/06/07 05:10:32;;;;;;;46.57;31.07;;;20.50;98.00;;;;;;5116346;27;20227;-63
2023/06/07 05:13:01;;;;;;;45.50;29.83;;;20.60;97.90;;;;;;5116286;27;20202;-63
2023/06/07 05:15:31;;;;;;;41.00;31.30;;;20.60;97.80;;;;;;5115539;27;20200;-63
2023/06/07 05:17:58;;;;;;;53.53;31.90;;;20.70;97.70;;;;;;5115559;27;20286;-63
2023/06/07 05:20:26;;;;;;;49.30;31.00;;;20.70;97.70;;;;;;5115236;27;20209;-63
2023/06/07 05:22:56;;;;;;;48.00;31.27;;;20.80;97.60;;;;;;5114504;27;20203;-63
2023/06/07 05:25:24;;;;;;;43.07;30.20;;;20.90;97.60;;;;;;5113747;27;20201;-63
2023/06/07 05:27:52;;;;;;;49.73;31.10;;;21.00;97.50;;;;;;5116811;27;20639;-64
2023/06/07 05:30:38;;;;;;;48.33;30.93;;;21.00;97.40;;;;;;5116668;27;20299;-63
2023/06/07 05:33:06;;;;;;;44.10;29.33;;;21.00;97.40;;;;;;5108431;28;20288;-63
2023/06/07 05:35:35;;;;;;;47.53;32.90;;;21.20;97.40;;;;;;5115275;27;20188;-63
2023/06/07 05:38:02;;;;;;;45.07;29.60;;;21.20;97.60;;;;;;5115230;27;20642;-64
2023/06/07 05:40:30;;;;;;;45.33;31.20;;;21.30;97.40;;;;;;5114351;27;20208;-63
2023/06/07 05:42:57;;;;;;;44.17;29.83;;;21.40;97.30;;;;;;5117038;27;20204;-63
2023/06/07 05:45:25;;;;;;;42.57;30.60;;;21.40;96.90;;;;;;5114465;27;20746;-63
2023/06/07 05:47:53;;;;;;;41.87;29.60;;;21.50;96.80;;;;;;5113557;27;20226;-63
2023/06/07 05:50:20;;;;;;;41.27;28.47;;;21.50;97.10;;;;;;5115164;27;20219;-64
2023/06/07 05:52:59;;;;;;;40.03;28.97;;;21.50;96.80;;;;;;5114293;27;20383;-63
2023/06/07 05:55:27;;;;;;;40.73;30.40;;;21.40;96.70;;;;;;5116930;27;20204;-63
2023/06/07 05:57:57;;;;;;;43.43;31.13;;;21.40;96.80;;;;;;5118911;27;20200;-63
2023/06/07 06:00:24;;;;;;;44.13;30.87;;;21.40;96.90;;;;;;5116309;27;20686;-63
2023/06/07 06:02:52;;;;;;;44.53;31.43;;;21.50;96.90;;;;;;5115759;27;20200;-63
2023/06/07 06:05:21;;;;;;;43.63;31.57;;;21.40;96.80;;;;;;5117480;27;20204;-63
2023/06/07 06:07:48;;;;;;;45.93;32.20;;;21.40;96.80;;;;;;5116708;27;20212;-63
2023/06/07 06:10:15;;;;;;;46.00;32.27;;;21.40;96.80;;;;;;5117731;27;20197;-64
2023/06/07 06:12:42;;;;;;;43.50;32.40;;;21.40;96.80;;;;;;5118369;27;20241;-63
2023/06/07 06:15:10;;;;;;;45.50;31.27;;;21.40;96.80;;;;;;5115626;27;20192;-64
2023/06/07 06:17:37;;;;;;;46.07;33.67;;;21.40;96.80;;;;;;5116189;27;20214;-63
2023/06/07 06:20:04;;;;;;;49.80;33.43;;;21.40;96.80;;;;;;5114238;27;20192;-64
2023/06/07 06:22:33;;;;;;;55.43;32.93;;;21.40;96.90;;;;;;5113261;27;20193;-63
2023/06/07 06:25:00;;;;;;;38.60;29.33;;;21.40;97.00;;;;;;5114635;27;20201;-63
2023/06/07 06:27:27;;;;;;;39.47;28.60;;;21.40;97.00;;;;;;5115665;27;20226;-63
2023/06/07 06:29:55;;;;;;;37.67;28.03;;;21.50;97.10;;;;;;5114772;27;20643;-64
2023/06/07 06:32:22;;;;;;;37.40;28.53;;;21.60;97.20;;;;;;5115749;27;20200;-63
2023/06/07 06:34:49;;;;;;;40.77;28.87;;;21.70;97.20;;;;;;5117951;27;20200;-64
2023/06/07 06:37:16;;;;;;;40.13;28.13;;;21.80;97.00;;;;;;5114853;27;20294;-63
2023/06/07 06:39:43;;;;;;;38.33;27.80;;;21.80;96.90;;;;;;5117311;27;20584;-63
2023/06/07 06:42:10;;;;;;;37.43;29.33;;;21.90;96.80;;;;;;5115339;27;20207;-63
2023/06/07 06:44:57;;;;;;;37.50;29.90;;;22.00;96.80;;;;;;5115561;27;20208;-64
2023/06/07 06:47:25;;;;;;;35.90;26.87;;;22.20;96.80;;;;;;5115327;27;20244;-63
2023/06/07 06:49:53;;;;;;;38.43;29.17;;;22.40;96.80;;;;;;5116915;27;20228;-63
2023/06/07 06:52:20;;;;;;;33.03;27.80;;;22.60;96.50;;;;;;5114630;27;20188;-63
2023/06/07 06:54:47;;;;;;;41.17;28.37;;;22.80;96.20;;;;;;5117136;27;20197;-64
2023/06/07 06:57:14;;;;;;;35.50;27.97;;;23.00;95.90;;;;;;5115261;27;20676;-64
2023/06/07 06:59:41;;;;;;;39.23;27.77;;;23.20;95.80;;;;;;5116003;27;20676;-63
2023/06/07 07:02:10;;;;;;;34.33;28.57;;;23.30;95.20;;;;;;5113940;27;20200;-64
2023/06/07 07:04:38;;;;;;;34.00;27.40;;;23.40;95.00;;;;;;5115403;28;20589;-64
2023/06/07 07:07:07;;;;;;;33.57;26.33;;;23.50;94.80;;;;;;5114488;27;20525;-64
2023/06/07 07:09:34;;;;;;;32.83;28.07;;;23.50;94.60;;;;;;5116400;27;20193;-63
2023/06/07 07:12:01;;;;;;;36.03;27.00;;;23.50;94.30;;;;;;5113931;27;20284;-64
2023/06/07 07:14:28;;;;;;;34.33;26.03;;;23.60;94.10;;;;;;5113805;27;20264;-64
2023/06/07 07:16:55;;;;;;;31.87;25.77;;;23.50;94.10;;;;;;5116387;27;20185;-64
2023/06/07 07:19:22;;;;;;;37.97;29.17;;;23.50;94.10;;;;;;5110504;27;20593;-64
2023/06/07 07:21:51;;;;;;;32.40;25.27;;;23.50;93.80;;;;;;5113071;27;20707;-63
2023/06/07 07:24:18;;;;;;;29.93;24.83;;;23.50;93.70;;;;;;5115891;28;20220;-65
2023/06/07 07:26:46;;;;;;;30.93;25.17;;;23.40;93.70;;;;;;5116087;27;20192;-64
2023/06/07 07:29:13;;;;;;;30.07;24.10;;;23.40;93.90;;;;;;5112481;27;20188;-64
2023/06/07 07:31:40;;;;;;;32.57;24.13;;;23.40;94.00;;;;;;5117166;27;20265;-64
2023/06/07 07:34:08;;;;;;;33.80;24.47;;;23.40;93.80;;;;;;5114149;28;20193;-64
2023/06/07 07:36:35;;;;;;;25.83;22.47;;;23.40;93.70;;;;;;5114311;28;20207;-64
2023/06/07 07:39:05;;;;;;;26.73;23.80;;;23.40;93.60;;;;;;5113831;28;20649;-64
2023/06/07 07:41:33;;;;;;;31.07;21.33;;;23.40;93.80;;;;;;5115028;28;20601;-64
2023/06/07 07:44:00;;;;;;;27.97;21.40;;;23.50;93.90;;;;;;5115696;28;20593;-64
2023/06/07 07:46:28;;;;;;;24.70;21.57;;;23.60;93.60;;;;;;5115165;28;20200;-64
2023/06/07 07:48:55;;;;;;;27.47;21.00;;;23.60;93.40;;;;;;5115403;28;20322;-64
2023/06/07 07:51:23;;;;;;;26.43;22.67;;;23.80;93.30;;;;;;5115409;28;20195;-64
2023/06/07 07:53:52;;;;;;;27.60;22.97;;;24.00;93.40;;;;;;5116399;28;20203;-64
2023/06/07 07:56:23;;;;;;;26.40;22.67;;;24.30;92.80;;;;;;5114143;28;20193;-64
2023/06/07 07:58:50;;;;;;;27.37;21.30;;;24.40;92.10;;;;;;5114742;28;20200;-67
2023/06/07 08:01:19;;;;;;;26.50;20.47;;;24.40;92.00;;;;;;5111242;28;20209;-64
2023/06/07 08:03:47;;;;;;;31.87;23.47;;;24.50;92.00;;;;;;5114319;28;20200;-65
2023/06/07 08:06:15;;;;;;;30.90;23.67;;;24.50;91.80;;;;;;5116069;28;20207;-65
2023/06/07 08:08:46;;;;;;;27.63;23.03;;;24.50;91.70;;;;;;5114051;28;20218;-65
2023/06/07 08:11:14;;;;;;;26.03;22.23;;;24.50;91.60;;;;;;5112396;28;20221;-63
2023/06/07 08:13:41;;;;;;;26.07;21.23;;;24.40;91.70;;;;;;5114665;28;20231;-67
2023/06/07 08:16:08;;;;;;;29.03;23.17;;;24.40;91.80;;;;;;5114744;28;20288;-63
2023/06/07 08:18:35;;;;;;;24.60;22.07;;;24.40;91.90;;;;;;5112651;28;20204;-67
2023/06/07 08:21:03;;;;;;;25.40;20.87;;;24.50;92.30;;;;;;5116117;28;20197;-66
2023/06/07 08:23:31;;;;;;;24.73;21.83;;;24.70;92.40;;;;;;5115120;28;20598;-65
2023/06/07 08:25:59;;;;;;;27.70;21.87;;;25.00;92.20;;;;;;5115000;28;20197;-63
2023/06/07 08:28:26;;;;;;;25.17;20.30;;;25.40;91.80;;;;;;5119344;27;20655;-66
2023/06/07 08:30:53;;;;;;;22.50;18.87;;;25.70;91.10;;;;;;5118113;27;20276;-68
2023/06/07 08:33:20;;;;;;;22.87;20.00;;;26.00;90.30;;;;;;5116676;27;20202;-65
2023/06/07 08:35:47;;;;;;;24.93;19.83;;;26.20;89.30;;;;;;5116597;27;20193;-65
2023/06/07 08:38:14;;;;;;;21.07;18.13;;;26.40;88.40;;;;;;5120404;27;20630;-65
2023/06/07 08:40:41;;;;;;;22.80;19.77;;;26.50;87.30;;;;;;5114340;27;20196;-65
2023/06/07 08:43:08;;;;;;;20.70;18.60;;;26.70;86.90;;;;;;5120111;27;20747;-65
2023/06/07 08:45:36;;;;;;;21.20;18.90;;;26.90;87.00;;;;;;5118597;27;20291;-65
2023/06/07 08:48:12;;;;;;;23.47;18.47;;;27.00;86.70;;;;;;5114432;27;20209;-65
2023/06/07 08:50:41;;;;;;;22.27;19.97;;;27.20;85.30;;;;;;5116950;27;20675;-70
2023/06/07 08:53:13;;;;;;;22.27;19.30;;;27.30;83.30;;;;;;5119332;27;20200;-66
2023/06/07 08:55:42;;;;;;;21.57;17.40;;;27.50;83.10;;;;;;5117659;27;20200;-67
2023/06/07 08:58:11;;;;;;;20.73;16.60;;;27.50;81.20;;;;;;5118655;27;20201;-65
2023/06/07 09:00:38;;;;;;;17.90;15.10;;;27.40;81.30;;;;;;5117660;27;20267;-65
2023/06/07 09:03:06;;;;;;;13.83;12.50;;;27.30;81.80;;;;;;5119096;27;20242;-64
2023/06/07 09:05:33;;;;;;;16.90;14.03;;;27.10;80.80;;;;;;5118023;27;20295;-66
2023/06/07 09:08:02;;;;;;;16.80;15.03;;;26.90;81.50;;;;;;5119989;27;20287;-65
2023/06/07 09:10:30;;;;;;;16.77;15.03;;;26.90;81.80;;;;;;5115555;27;20200;-66
2023/06/07 09:12:57;;;;;;;13.53;11.77;;;26.90;81.70;;;;;;5120366;27;20204;-65
2023/06/07 09:15:24;;;;;;;14.90;12.73;;;27.00;81.30;;;;;;5120375;27;20202;-66
2023/06/07 09:17:55;;;;;;;11.07;9.97;;;27.10;80.40;;;;;;5119425;27;20505;-66
2023/06/07 09:20:24;;;;;;;14.47;12.77;;;27.30;80.10;;;;;;5120269;27;20726;-66
2023/06/07 09:22:59;;;;;;;14.27;11.77;;;27.50;78.20;;;;;;5118281;27;20203;-67
2023/06/07 09:25:27;;;;;;;13.87;12.47;;;27.70;79.00;;;;;;5118400;27;20200;-65
2023/06/07 09:27:55;;;;;;;13.33;12.03;;;27.90;78.10;;;;;;5118498;27;20325;-66
2023/06/07 09:30:23;;;;;;;13.33;12.07;;;27.90;76.50;;;;;;5115784;27;20200;-68
2023/06/07 09:32:50;;;;;;;11.73;10.57;;;27.60;76.30;;;;;;5115534;27;20208;-65
2023/06/07 09:35:21;;;;;;;14.47;12.00;;;27.30;77.50;;;;;;5116442;27;20196;-66
2023/06/07 09:37:57;;;;;;;15.37;12.67;;;27.20;78.30;;;;;;5116777;27;20200;-68
2023/06/07 09:40:24;;;;;;;14.57;11.73;;;27.30;79.40;;;;;;5115334;27;20662;-65
2023/06/07 09:42:58;;;;;;;14.37;12.97;;;27.40;79.80;;;;;;5118114;27;20214;-66
2023/06/07 09:45:27;;;;;;;14.20;12.63;;;27.70;79.40;;;;;;5115322;27;20212;-66
2023/06/07 09:48:02;;;;;;;14.83;11.27;;;27.90;79.30;;;;;;5114026;28;20205;-67
2023/06/07 09:50:30;;;;;;;13.37;11.97;;;28.20;77.40;;;;;;5117393;27;20239;-69
2023/06/07 09:52:59;;;;;;;13.77;11.63;;;28.40;76.50;;;;;;5116788;27;20204;-66
2023/06/07 09:55:28;;;;;;;12.20;10.87;;;28.60;76.40;;;;;;5121656;27;20254;-70
2023/06/07 09:57:55;;;;;;;10.83;9.77;;;28.80;74.90;;;;;;5115865;27;20206;-65
2023/06/07 10:00:23;;;;;;;10.87;9.77;;;28.80;74.40;;;;;;5114440;27;20265;-66
2023/06/07 10:02:50;;;;;;;10.63;9.57;;;28.80;73.80;;;;;;5114728;27;20416;-64
2023/06/07 10:05:21;;;;;;;9.97;8.97;;;28.60;73.10;;;;;;5118210;27;20204;-67
2023/06/07 10:07:50;;;;;;;10.40;9.40;;;28.40;73.40;;;;;;5116178;27;20277;-66
2023/06/07 10:10:21;;;;;;;11.00;7.30;;;28.30;73.60;;;;;;5115805;27;20235;-66
2023/06/07 10:12:51;;;;;;;9.70;8.80;;;28.40;74.10;;;;;;5118231;27;20275;-66
2023/06/07 10:15:25;;;;;;;10.00;7.40;;;28.50;73.80;;;;;;5114478;27;20195;-69
2023/06/07 10:18:11;;;;;;;8.77;7.87;;;28.80;73.40;;;;;;5099905;27;20253;-68
2023/06/07 10:20:41;;;;;;;9.67;7.77;;;29.10;72.90;;;;;;5112108;27;20221;-69
2023/06/07 10:23:13;;;;;;;14.17;8.77;;;29.20;70.80;;;;;;5116021;27;20246;-67
2023/06/07 10:25:52;;;;;;;10.20;8.37;;;29.20;70.20;;;;;;5119638;27;20231;-70
2023/06/07 10:28:21;;;;;;;8.40;7.70;;;29.20;70.80;;;;;;5115409;27;20265;-70
2023/06/07 10:30:55;;;;;;;9.80;8.13;;;29.10;71.50;;;;;;5114539;27;20205;-67
2023/06/07 10:33:26;;;;;;;9.50;7.93;;;28.90;71.90;;;;;;5118071;27;20213;-65
2023/06/07 10:35:55;;;;;;;8.40;7.60;;;28.70;72.60;;;;;;5117144;27;20283;-67
2023/06/07 10:38:22;;;;;;;9.77;8.87;;;28.50;72.30;;;;;;5115742;27;20205;-69
2023/06/07 10:40:49;;;;;;;9.37;8.37;;;28.40;73.10;;;;;;5117742;27;20193;-64
2023/06/07 10:43:16;;;;;;;9.77;8.23;;;28.20;72.90;;;;;;5116326;27;20214;-69
2023/06/07 10:45:43;;;;;;;9.57;8.57;;;28.10;72.60;;;;;;5112562;27;20204;-67
2023/06/07 10:48:45;;;;;;;7.30;6.60;;;28.10;73.20;;;;;;5114881;27;20225;-65
2023/06/07 10:51:13;;;;;;;12.00;8.80;;;28.30;74.40;;;;;;5104989;27;20264;-67
2023/06/07 10:53:51;;;;;;;10.37;9.37;;;28.50;72.50;;;;;;5112409;27;20205;-67
2023/06/07 10:56:26;;;;;;;11.23;9.00;;;28.70;71.60;;;;;;5116022;27;20196;-65
2023/06/07 10:58:53;;;;;;;8.33;7.50;;;28.80;69.60;;;;;;5114769;27;20283;-67
2023/06/07 11:01:26;;;;;;;8.27;7.47;;;28.80;69.70;;;;;;5118247;27;20687;-68
2023/06/07 11:03:54;;;;;;;8.40;6.53;;;28.70;70.00;;;;;;5114768;27;20258;-67
2023/06/07 11:06:21;;;;;;;6.67;5.63;;;28.80;68.70;;;;;;5109812;27;20291;-67
2023/06/07 11:08:49;;;;;;;6.13;5.53;;;29.00;67.90;;;;;;5120160;27;20243;-67
2023/06/07 11:11:42;;;;;;;8.13;7.10;;;29.20;68.50;;;;;;5116224;27;20212;-67
2023/06/07 11:14:11;;;;;;;8.83;6.67;;;29.50;67.70;;;;;;5114218;27;20276;-67
2023/06/07 11:16:39;;;;;;;9.83;8.87;;;29.70;67.20;;;;;;5115315;27;20634;-67
2023/06/07 11:19:16;;;;;;;8.00;7.20;;;29.80;66.70;;;;;;5115971;27;20200;-67
2023/06/07 11:22:05;;;;;;;8.50;7.13;;;29.80;67.50;;;;;;5129577;27;20204;-68
2023/06/07 11:24:34;;;;;;;10.73;8.90;;;29.80;66.80;;;;;;5116105;28;20200;-67
2023/06/07 11:27:02;;;;;;;9.77;7.90;;;29.80;67.50;;;;;;5131602;27;20200;-67
2023/06/07 11:29:30;;;;;;;7.93;7.23;;;29.80;67.50;;;;;;5115328;27;20677;-68
2023/06/07 11:32:02;;;;;;;7.90;7.20;;;29.80;68.50;;;;;;5120433;27;20208;-68
2023/06/07 11:34:30;;;;;;;10.90;7.80;;;30.00;68.00;;;;;;5114158;28;20544;-68
2023/06/07 11:37:11;;;;;;;9.80;8.47;;;30.10;67.40;;;;;;5113483;27;20192;-66
2023/06/07 11:39:38;;;;;;;8.80;7.90;;;30.00;66.30;;;;;;5119432;28;20242;-67
2023/06/07 11:42:06;;;;;;;8.53;7.33;;;29.70;67.00;;;;;;5114664;28;20284;-68
2023/06/07 11:44:34;;;;;;;8.30;7.30;;;29.50;67.70;;;;;;5116532;28;20281;-68
2023/06/07 11:47:07;;;;;;;9.00;8.10;;;29.50;67.30;;;;;;5116941;27;20204;-68
2023/06/07 11:49:35;;;;;;;8.17;7.37;;;29.60;66.60;;;;;;5114314;28;20297;-66
2023/06/07 11:52:03;;;;;;;6.50;5.90;;;29.80;65.20;;;;;;5117847;28;20640;-68
2023/06/07 11:54:30;;;;;;;8.57;6.40;;;29.80;66.00;;;;;;5114510;28;20573;-68
2023/06/07 11:56:58;;;;;;;6.70;6.00;;;29.70;66.10;;;;;;5115683;28;20280;-68
2023/06/07 11:59:26;;;;;;;6.50;5.90;;;29.50;66.40;;;;;;5115865;28;20215;-68
2023/06/07 12:01:54;;;;;;;7.10;5.87;;;29.20;66.80;;;;;;5118598;27;20197;-68
2023/06/07 12:04:22;;;;;;;7.83;6.40;;;28.90;66.00;;;;;;5116753;27;20192;-67
2023/06/07 12:06:50;;;;;;;6.67;6.07;;;28.60;67.00;;;;;;5115993;27;20635;-67
2023/06/07 12:09:19;;;;;;;7.17;6.47;;;28.30;67.60;;;;;;5121713;27;20237;-68
2023/06/07 12:11:47;;;;;;;9.20;5.97;;;28.20;68.00;;;;;;5117295;27;20189;-68
2023/06/07 12:14:33;;;;;;;6.60;5.43;;;28.40;68.70;;;;;;5120823;27;20227;-68
2023/06/07 12:17:00;;;;;;;3.10;2.90;;;28.70;67.40;;;;;;5118924;27;20635;-68
2023/06/07 12:19:28;;;;;;;3.60;3.30;;;29.00;65.80;;;;;;5113631;27;20231;-68
2023/06/07 12:22:06;;;;;;;4.13;3.27;;;29.20;63.60;;;;;;5121696;27;20283;-69
2023/06/07 12:24:37;;;;;;;4.37;3.47;;;29.40;63.50;;;;;;5120483;27;20196;-68
2023/06/07 12:27:05;;;;;;;5.73;3.47;;;29.30;63.10;;;;;;5114588;27;20193;-68
2023/06/07 12:29:32;;;;;;;5.93;3.07;;;29.10;63.60;;;;;;5121332;27;20602;-68
2023/06/07 12:32:01;;;;;;;5.00;4.47;;;29.10;64.60;;;;;;5116640;27;20254;-68
2023/06/07 12:34:32;;;;;;;4.27;3.40;;;29.10;62.70;;;;;;5114157;27;20249;-68
2023/06/07 12:37:00;;;;;;;3.77;3.47;;;29.20;63.00;;;;;;5118139;27;20255;-69
2023/06/07 12:39:28;;;;;;;4.23;3.57;;;29.40;64.80;;;;;;5119718;27;20196;-68
2023/06/07 12:41:55;;;;;;;4.00;3.20;;;29.50;63.80;;;;;;5118690;27;20212;-68